sensor_id;sensor_type;location;lat;lon;timestamp;temperature;humidity
20831;DHT22;10576;53.556;9.868;2022-12-20T00:01:31;6.00;99.90
20831;DHT22;10576;53.556;9.868;2022-12-20T00:03:59;6.10;99.90
20831;DHT22;10576;53.556;9.868;2022-12-20T00:06:26;5.90;99.90
20831;DHT22;10576;53.556;9.868;2022-12-20T00:08:57;6.30;99.90
20831;DHT22;10576;53.556;9.868;2022-12-20T00:11:23;6.20;99.90
20831;DHT22;10576;53.556;9.868;2022-12-20T00:16:19;6.10;99.90
20831;DHT22;10576;53.556;9.868;2022-12-20T00:21:12;6.10;99.90
20831;DHT22;10576;53.556;9.868;2022-12-20T00:23:39;6.10;99.90
20831;DHT22;10576;53.556;9.868;2022-12-20T00:28:32;6.30;99.90
20831;DHT22;10576;53.556;9.868;2022-12-20T00:33:25;6.30;99.90
20831;DHT22;10576;53.556;9.868;2022-12-20T00:38:16;6.20;99.90
20831;DHT22;10576;53.556;9.868;2022-12-20T00:43:08;6.10;99.90
20831;DHT22;10576;53.556;9.868;2022-12-20T00:48:00;6.30;99.90
20831;DHT22;10576;53.556;9.868;2022-12-20T00:52:52;6.20;99.90
20831;DHT22;10576;53.556;9.868;2022-12-20T00:57:43;6.20;99.90
20831;DHT22;10576;53.556;9.868;2022-12-20T01:02:36;6.10;99.90
20831;DHT22;10576;53.556;9.868;2022-12-20T01:17:11;6.20;99.90
20831;DHT22;10576;53.556;9.868;2022-12-20T01:24:29;6.30;99.90
20831;DHT22;10576;53.556;9.868;2022-12-20T01:34:13;6.30;99.90
20831;DHT22;10576;53.556;9.868;2022-12-20T01:41:43;6.50;99.90
20831;DHT22;10576;53.556;9.868;2022-12-20T01:46:42;6.60;99.90
20831;DHT22;10576;53.556;9.868;2022-12-20T01:49:16;6.60;99.90
20831;DHT22;10576;53.556;9.868;2022-12-20T01:51:46;6.60;99.90
20831;DHT22;10576;53.556;9.868;2022-12-20T01:54:17;6.60;99.90
20831;DHT22;10576;53.556;9.868;2022-12-20T01:56:49;6.60;99.90
20831;DHT22;10576;53.556;9.868;2022-12-20T02:06:35;7.00;99.90
20831;DHT22;10576;53.556;9.868;2022-12-20T02:09:02;6.90;99.90
20831;DHT22;10576;53.556;9.868;2022-12-20T02:17:20;7.00;99.90
20831;DHT22;10576;53.556;9.868;2022-12-20T02:25:35;7.00;99.90
20831;DHT22;10576;53.556;9.868;2022-12-20T02:33:22;7.20;99.90
20831;DHT22;10576;53.556;9.868;2022-12-20T02:35:49;7.10;99.90
20831;DHT22;10576;53.556;9.868;2022-12-20T02:43:19;7.20;99.90
20831;DHT22;10576;53.556;9.868;2022-12-20T02:46:04;7.10;99.90
20831;DHT22;10576;53.556;9.868;2022-12-20T02:48:32;7.30;99.90
20831;DHT22;10576;53.556;9.868;2022-12-20T02:56:10;7.30;99.90
20831;DHT22;10576;53.556;9.868;2022-12-20T02:59:01;7.30;99.90
20831;DHT22;10576;53.556;9.868;2022-12-20T03:01:50;7.30;99.90
20831;DHT22;10576;53.556;9.868;2022-12-20T03:04:17;7.30;99.90
20831;DHT22;10576;53.556;9.868;2022-12-20T03:09:34;9.80;99.90
20831;DHT22;10576;53.556;9.868;2022-12-20T03:14:27;7.50;99.90
20831;DHT22;10576;53.556;9.868;2022-12-20T03:19:19;7.40;99.90
20831;DHT22;10576;53.556;9.868;2022-12-20T03:24:11;7.50;99.90
20831;DHT22;10576;53.556;9.868;2022-12-20T03:26:38;7.60;99.90
20831;DHT22;10576;53.556;9.868;2022-12-20T03:29:04;7.60;99.90
20831;DHT22;10576;53.556;9.868;2022-12-20T03:31:30;7.60;99.90
20831;DHT22;10576;53.556;9.868;2022-12-20T03:33:55;7.60;99.90
20831;DHT22;10576;53.556;9.868;2022-12-20T03:36:21;7.50;99.90
20831;DHT22;10576;53.556;9.868;2022-12-20T03:38:50;7.60;99.90
20831;DHT22;10576;53.556;9.868;2022-12-20T03:41:16;7.60;99.90
20831;DHT22;10576;53.556;9.868;2022-12-20T03:43:42;7.70;99.90
20831;DHT22;10576;53.556;9.868;2022-12-20T03:46:07;7.70;99.90
20831;DHT22;10576;53.556;9.868;2022-12-20T03:48:33;7.60;99.90
20831;DHT22;10576;53.556;9.868;2022-12-20T03:50:59;7.70;99.90
20831;DHT22;10576;53.556;9.868;2022-12-20T03:53:24;7.70;99.90
20831;DHT22;10576;53.556;9.868;2022-12-20T03:55:50;7.90;99.90
20831;DHT22;10576;53.556;9.868;2022-12-20T03:58:15;7.90;99.90
20831;DHT22;10576;53.556;9.868;2022-12-20T04:03:07;7.80;99.90
20831;DHT22;10576;53.556;9.868;2022-12-20T04:05:33;7.60;99.90
20831;DHT22;10576;53.556;9.868;2022-12-20T04:07:59;7.70;99.90
20831;DHT22;10576;53.556;9.868;2022-12-20T04:10:24;7.90;99.90
20831;DHT22;10576;53.556;9.868;2022-12-20T04:12:50;7.80;99.90
20831;DHT22;10576;53.556;9.868;2022-12-20T04:15:16;7.60;99.90
20831;DHT22;10576;53.556;9.868;2022-12-20T04:17:41;7.70;99.90
20831;DHT22;10576;53.556;9.868;2022-12-20T04:20:09;7.90;99.90
20831;DHT22;10576;53.556;9.868;2022-12-20T04:22:45;7.80;99.90
20831;DHT22;10576;53.556;9.868;2022-12-20T04:25:11;7.70;99.90
20831;DHT22;10576;53.556;9.868;2022-12-20T04:27:37;7.80;99.90
20831;DHT22;10576;53.556;9.868;2022-12-20T04:30:03;7.80;99.90
20831;DHT22;10576;53.556;9.868;2022-12-20T04:32:28;7.80;99.90
20831;DHT22;10576;53.556;9.868;2022-12-20T04:34:54;7.80;99.90
20831;DHT22;10576;53.556;9.868;2022-12-20T04:37:20;7.70;99.90
20831;DHT22;10576;53.556;9.868;2022-12-20T04:39:45;7.70;99.90
20831;DHT22;10576;53.556;9.868;2022-12-20T04:44:37;7.70;99.90
20831;DHT22;10576;53.556;9.868;2022-12-20T04:47:03;7.90;99.90
20831;DHT22;10576;53.556;9.868;2022-12-20T04:49:28;7.90;99.90
20831;DHT22;10576;53.556;9.868;2022-12-20T04:54:40;8.00;99.90
20831;DHT22;10576;53.556;9.868;2022-12-20T04:57:05;8.00;99.90
20831;DHT22;10576;53.556;9.868;2022-12-20T04:59:31;7.90;99.90
20831;DHT22;10576;53.556;9.868;2022-12-20T05:01:57;7.90;99.90
20831;DHT22;10576;53.556;9.868;2022-12-20T05:04:24;7.90;99.90
20831;DHT22;10576;53.556;9.868;2022-12-20T05:06:50;8.00;99.90
20831;DHT22;10576;53.556;9.868;2022-12-20T05:09:15;7.90;99.90
20831;DHT22;10576;53.556;9.868;2022-12-20T05:11:41;7.90;99.90
20831;DHT22;10576;53.556;9.868;2022-12-20T05:14:07;7.90;99.90
20831;DHT22;10576;53.556;9.868;2022-12-20T05:16:32;7.80;99.90
20831;DHT22;10576;53.556;9.868;2022-12-20T05:18:58;7.80;99.90
20831;DHT22;10576;53.556;9.868;2022-12-20T05:21:24;7.80;99.90
20831;DHT22;10576;53.556;9.868;2022-12-20T05:24:08;7.90;99.90
20831;DHT22;10576;53.556;9.868;2022-12-20T05:26:53;7.70;99.90
20831;DHT22;10576;53.556;9.868;2022-12-20T05:29:19;7.80;99.90
20831;DHT22;10576;53.556;9.868;2022-12-20T05:31:44;7.80;99.90
20831;DHT22;10576;53.556;9.868;2022-12-20T05:34:10;7.90;99.90
20831;DHT22;10576;53.556;9.868;2022-12-20T05:36:36;7.80;99.90
20831;DHT22;10576;53.556;9.868;2022-12-20T05:39:01;7.80;99.90
20831;DHT22;10576;53.556;9.868;2022-12-20T05:41:27;7.70;99.90
20831;DHT22;10576;53.556;9.868;2022-12-20T05:43:53;7.90;99.90
20831;DHT22;10576;53.556;9.868;2022-12-20T05:46:18;7.70;99.90
20831;DHT22;10576;53.556;9.868;2022-12-20T05:48:44;7.80;99.90
20831;DHT22;10576;53.556;9.868;2022-12-20T05:51:09;7.80;99.90
20831;DHT22;10576;53.556;9.868;2022-12-20T05:53:35;7.90;99.90
20831;DHT22;10576;53.556;9.868;2022-12-20T05:56:01;7.80;99.90
20831;DHT22;10576;53.556;9.868;2022-12-20T05:58:27;7.80;99.90
20831;DHT22;10576;53.556;9.868;2022-12-20T06:00:53;7.90;99.90
20831;DHT22;10576;53.556;9.868;2022-12-20T06:03:20;7.80;99.90
20831;DHT22;10576;53.556;9.868;2022-12-20T06:05:46;7.90;99.90
20831;DHT22;10576;53.556;9.868;2022-12-20T06:08:12;8.00;99.90
20831;DHT22;10576;53.556;9.868;2022-12-20T06:10:39;7.90;99.90
20831;DHT22;10576;53.556;9.868;2022-12-20T06:13:06;8.00;99.90
20831;DHT22;10576;53.556;9.868;2022-12-20T06:15:32;8.00;99.90
20831;DHT22;10576;53.556;9.868;2022-12-20T06:17:59;8.10;99.90
20831;DHT22;10576;53.556;9.868;2022-12-20T06:20:25;8.10;99.90
20831;DHT22;10576;53.556;9.868;2022-12-20T06:22:50;8.00;99.90
20831;DHT22;10576;53.556;9.868;2022-12-20T06:25:17;8.00;99.90
20831;DHT22;10576;53.556;9.868;2022-12-20T06:27:42;8.20;99.90
20831;DHT22;10576;53.556;9.868;2022-12-20T06:30:09;8.00;99.90
20831;DHT22;10576;53.556;9.868;2022-12-20T06:32:35;8.50;99.90
20831;DHT22;10576;53.556;9.868;2022-12-20T06:35:01;8.10;99.90
20831;DHT22;10576;53.556;9.868;2022-12-20T06:37:27;8.20;99.90
20831;DHT22;10576;53.556;9.868;2022-12-20T06:39:52;8.00;99.90
20831;DHT22;10576;53.556;9.868;2022-12-20T06:44:44;8.30;99.90
20831;DHT22;10576;53.556;9.868;2022-12-20T06:47:10;8.30;99.90
20831;DHT22;10576;53.556;9.868;2022-12-20T06:49:35;8.30;99.90
20831;DHT22;10576;53.556;9.868;2022-12-20T06:52:01;8.20;99.90
20831;DHT22;10576;53.556;9.868;2022-12-20T06:54:27;8.40;99.90
20831;DHT22;10576;53.556;9.868;2022-12-20T06:56:53;8.20;99.90
20831;DHT22;10576;53.556;9.868;2022-12-20T06:59:18;8.30;99.90
20831;DHT22;10576;53.556;9.868;2022-12-20T07:01:44;8.20;99.90
20831;DHT22;10576;53.556;9.868;2022-12-20T07:04:10;8.30;99.90
20831;DHT22;10576;53.556;9.868;2022-12-20T07:06:35;8.20;99.90
20831;DHT22;10576;53.556;9.868;2022-12-20T07:09:01;8.50;99.90
20831;DHT22;10576;53.556;9.868;2022-12-20T07:11:27;8.40;99.90
20831;DHT22;10576;53.556;9.868;2022-12-20T07:16:22;8.30;99.90
20831;DHT22;10576;53.556;9.868;2022-12-20T07:18:52;8.50;99.90
20831;DHT22;10576;53.556;9.868;2022-12-20T07:21:19;8.30;99.90
20831;DHT22;10576;53.556;9.868;2022-12-20T07:23:45;8.30;99.90
20831;DHT22;10576;53.556;9.868;2022-12-20T07:28:37;8.30;99.90
20831;DHT22;10576;53.556;9.868;2022-12-20T07:31:03;8.20;99.90
20831;DHT22;10576;53.556;9.868;2022-12-20T07:33:29;8.30;99.90
20831;DHT22;10576;53.556;9.868;2022-12-20T07:38:32;8.30;99.90
20831;DHT22;10576;53.556;9.868;2022-12-20T07:43:26;8.40;99.90
20831;DHT22;10576;53.556;9.868;2022-12-20T07:45:55;8.30;99.90
20831;DHT22;10576;53.556;9.868;2022-12-20T07:48:22;8.30;99.90
20831;DHT22;10576;53.556;9.868;2022-12-20T07:50:51;8.30;99.90
20831;DHT22;10576;53.556;9.868;2022-12-20T07:53:19;8.00;99.90
20831;DHT22;10576;53.556;9.868;2022-12-20T07:55:45;8.30;99.90
20831;DHT22;10576;53.556;9.868;2022-12-20T07:58:12;8.50;99.90
20831;DHT22;10576;53.556;9.868;2022-12-20T08:00:38;8.30;99.90
20831;DHT22;10576;53.556;9.868;2022-12-20T08:03:08;8.30;99.90
20831;DHT22;10576;53.556;9.868;2022-12-20T08:05:38;8.40;99.90
20831;DHT22;10576;53.556;9.868;2022-12-20T08:08:05;8.40;99.90
20831;DHT22;10576;53.556;9.868;2022-12-20T08:10:31;8.50;99.90
20831;DHT22;10576;53.556;9.868;2022-12-20T08:12:57;8.20;99.90
20831;DHT22;10576;53.556;9.868;2022-12-20T08:17:50;8.40;99.90
20831;DHT22;10576;53.556;9.868;2022-12-20T08:20:15;8.50;99.90
20831;DHT22;10576;53.556;9.868;2022-12-20T08:22:41;8.40;99.90
20831;DHT22;10576;53.556;9.868;2022-12-20T08:25:07;8.50;99.90
20831;DHT22;10576;53.556;9.868;2022-12-20T08:27:33;8.40;99.90
20831;DHT22;10576;53.556;9.868;2022-12-20T08:29:59;8.50;99.90
20831;DHT22;10576;53.556;9.868;2022-12-20T08:32:24;8.40;99.90
20831;DHT22;10576;53.556;9.868;2022-12-20T08:34:51;8.60;99.90
20831;DHT22;10576;53.556;9.868;2022-12-20T08:37:17;8.50;99.90
20831;DHT22;10576;53.556;9.868;2022-12-20T08:39:43;8.70;99.90
20831;DHT22;10576;53.556;9.868;2022-12-20T08:42:09;8.60;99.90
20831;DHT22;10576;53.556;9.868;2022-12-20T08:44:34;8.50;99.90
20831;DHT22;10576;53.556;9.868;2022-12-20T08:47:00;8.80;99.90
20831;DHT22;10576;53.556;9.868;2022-12-20T08:49:25;8.70;99.90
20831;DHT22;10576;53.556;9.868;2022-12-20T08:51:51;8.80;99.90
20831;DHT22;10576;53.556;9.868;2022-12-20T08:56:43;8.70;99.90
20831;DHT22;10576;53.556;9.868;2022-12-20T08:59:08;8.90;99.90
20831;DHT22;10576;53.556;9.868;2022-12-20T09:01:34;8.90;99.90
20831;DHT22;10576;53.556;9.868;2022-12-20T09:04:00;9.00;99.90
20831;DHT22;10576;53.556;9.868;2022-12-20T09:06:25;8.80;99.90
20831;DHT22;10576;53.556;9.868;2022-12-20T09:08:51;9.10;99.90
20831;DHT22;10576;53.556;9.868;2022-12-20T09:11:22;9.10;99.90
20831;DHT22;10576;53.556;9.868;2022-12-20T09:13:50;9.10;99.90
20831;DHT22;10576;53.556;9.868;2022-12-20T09:16:18;9.10;99.90
20831;DHT22;10576;53.556;9.868;2022-12-20T09:18:48;9.20;99.90
20831;DHT22;10576;53.556;9.868;2022-12-20T09:21:14;9.30;99.90
20831;DHT22;10576;53.556;9.868;2022-12-20T09:26:09;9.20;99.90
20831;DHT22;10576;53.556;9.868;2022-12-20T09:31:03;9.40;99.90
20831;DHT22;10576;53.556;9.868;2022-12-20T09:35:56;9.40;99.90
20831;DHT22;10576;53.556;9.868;2022-12-20T09:40:50;9.40;99.90
20831;DHT22;10576;53.556;9.868;2022-12-20T09:48:18;9.70;99.90
20831;DHT22;10576;53.556;9.868;2022-12-20T09:58:58;9.70;99.90
20831;DHT22;10576;53.556;9.868;2022-12-20T10:01:25;9.60;99.90
20831;DHT22;10576;53.556;9.868;2022-12-20T10:03:53;9.60;99.90
20831;DHT22;10576;53.556;9.868;2022-12-20T10:08:58;9.60;99.90
20831;DHT22;10576;53.556;9.868;2022-12-20T10:11:45;9.50;99.90
20831;DHT22;10576;53.556;9.868;2022-12-20T10:22:47;9.30;99.90
20831;DHT22;10576;53.556;9.868;2022-12-20T10:25:19;9.60;99.90
20831;DHT22;10576;53.556;9.868;2022-12-20T10:30:18;9.50;99.90
20831;DHT22;10576;53.556;9.868;2022-12-20T10:38:07;9.60;99.90
20831;DHT22;10576;53.556;9.868;2022-12-20T10:40:43;9.80;99.90
20831;DHT22;10576;53.556;9.868;2022-12-20T10:43:18;9.80;99.90
20831;DHT22;10576;53.556;9.868;2022-12-20T10:45:55;9.90;99.90
20831;DHT22;10576;53.556;9.868;2022-12-20T10:48:33;10.00;99.90
20831;DHT22;10576;53.556;9.868;2022-12-20T10:51:20;10.00;99.90
20831;DHT22;10576;53.556;9.868;2022-12-20T11:06:54;10.10;99.90
20831;DHT22;10576;53.556;9.868;2022-12-20T11:16:52;10.60;99.90
20831;DHT22;10576;53.556;9.868;2022-12-20T11:27:46;10.60;99.90
20831;DHT22;10576;53.556;9.868;2022-12-20T11:30:19;10.70;99.90
20831;DHT22;10576;53.556;9.868;2022-12-20T11:35:39;10.70;99.90
20831;DHT22;10576;53.556;9.868;2022-12-20T11:51:45;10.60;99.90
20831;DHT22;10576;53.556;9.868;2022-12-20T11:54:22;10.60;99.90
20831;DHT22;10576;53.556;9.868;2022-12-20T11:56:52;10.50;99.90
20831;DHT22;10576;53.556;9.868;2022-12-20T12:03:04;10.70;99.90
20831;DHT22;10576;53.556;9.868;2022-12-20T12:10:03;10.60;99.90
20831;DHT22;10576;53.556;9.868;2022-12-20T12:12:37;10.60;99.90
20831;DHT22;10576;53.556;9.868;2022-12-20T12:20:25;10.30;99.90
20831;DHT22;10576;53.556;9.868;2022-12-20T12:23:02;10.30;99.90
20831;DHT22;10576;53.556;9.868;2022-12-20T12:25:30;10.20;99.90
20831;DHT22;10576;53.556;9.868;2022-12-20T12:27:56;10.20;99.90
20831;DHT22;10576;53.556;9.868;2022-12-20T12:30:22;10.20;99.90
20831;DHT22;10576;53.556;9.868;2022-12-20T12:32:54;10.20;99.90
20831;DHT22;10576;53.556;9.868;2022-12-20T12:38:45;10.10;99.90
20831;DHT22;10576;53.556;9.868;2022-12-20T12:46:54;9.80;99.90
20831;DHT22;10576;53.556;9.868;2022-12-20T12:49:22;10.00;99.90
20831;DHT22;10576;53.556;9.868;2022-12-20T12:51:57;9.90;99.90
20831;DHT22;10576;53.556;9.868;2022-12-20T12:56:52;9.80;99.90
20831;DHT22;10576;53.556;9.868;2022-12-20T13:18:00;9.50;99.90
20831;DHT22;10576;53.556;9.868;2022-12-20T13:49:31;9.50;99.90
20831;DHT22;10576;53.556;9.868;2022-12-20T13:54:44;9.40;99.90
20831;DHT22;10576;53.556;9.868;2022-12-20T13:57:18;9.40;99.90
20831;DHT22;10576;53.556;9.868;2022-12-20T13:59:51;9.30;99.90
20831;DHT22;10576;53.556;9.868;2022-12-20T14:02:29;9.40;99.90
20831;DHT22;10576;53.556;9.868;2022-12-20T14:14:51;9.40;99.90
20831;DHT22;10576;53.556;9.868;2022-12-20T14:17:25;9.30;99.90
20831;DHT22;10576;53.556;9.868;2022-12-20T14:25:08;9.30;99.90
20831;DHT22;10576;53.556;9.868;2022-12-20T14:34:57;9.20;99.90
20831;DHT22;10576;53.556;9.868;2022-12-20T14:40:00;9.40;99.90
20831;DHT22;10576;53.556;9.868;2022-12-20T14:42:32;9.20;99.90
20831;DHT22;10576;53.556;9.868;2022-12-20T14:47:58;9.20;99.90
20831;DHT22;10576;53.556;9.868;2022-12-20T14:50:33;9.20;99.90
20831;DHT22;10576;53.556;9.868;2022-12-20T14:55:44;9.20;99.90
20831;DHT22;10576;53.556;9.868;2022-12-20T14:58:30;9.20;99.90
20831;DHT22;10576;53.556;9.868;2022-12-20T15:01:03;9.30;99.90
20831;DHT22;10576;53.556;9.868;2022-12-20T15:03:56;9.10;99.90
20831;DHT22;10576;53.556;9.868;2022-12-20T15:06:34;9.10;99.90
20831;DHT22;10576;53.556;9.868;2022-12-20T15:09:02;9.10;99.90
20831;DHT22;10576;53.556;9.868;2022-12-20T15:13:55;9.20;99.90
20831;DHT22;10576;53.556;9.868;2022-12-20T15:16:28;9.10;99.90
20831;DHT22;10576;53.556;9.868;2022-12-20T15:21:34;9.10;99.90
20831;DHT22;10576;53.556;9.868;2022-12-20T15:26:32;9.00;99.90
20831;DHT22;10576;53.556;9.868;2022-12-20T15:28:58;9.00;99.90
20831;DHT22;10576;53.556;9.868;2022-12-20T15:31:26;9.10;99.90
20831;DHT22;10576;53.556;9.868;2022-12-20T15:33:54;9.00;99.90
20831;DHT22;10576;53.556;9.868;2022-12-20T15:36:27;9.00;99.90
20831;DHT22;10576;53.556;9.868;2022-12-20T15:38:55;9.20;99.90
20831;DHT22;10576;53.556;9.868;2022-12-20T15:41:27;9.00;99.90
20831;DHT22;10576;53.556;9.868;2022-12-20T15:43:59;9.00;99.90
20831;DHT22;10576;53.556;9.868;2022-12-20T15:46:26;8.90;99.90
20831;DHT22;10576;53.556;9.868;2022-12-20T15:48:52;9.00;99.90
20831;DHT22;10576;53.556;9.868;2022-12-20T15:51:29;9.00;99.90
20831;DHT22;10576;53.556;9.868;2022-12-20T15:53:55;9.10;99.90
20831;DHT22;10576;53.556;9.868;2022-12-20T15:56:22;9.00;99.90
20831;DHT22;10576;53.556;9.868;2022-12-20T15:58:48;9.00;99.90
20831;DHT22;10576;53.556;9.868;2022-12-20T16:01:33;9.00;99.90
20831;DHT22;10576;53.556;9.868;2022-12-20T16:04:00;9.00;99.90
20831;DHT22;10576;53.556;9.868;2022-12-20T16:06:26;9.00;99.90
20831;DHT22;10576;53.556;9.868;2022-12-20T16:08:51;9.10;99.90
20831;DHT22;10576;53.556;9.868;2022-12-20T16:11:23;9.00;99.90
20831;DHT22;10576;53.556;9.868;2022-12-20T16:13:49;9.00;99.90
20831;DHT22;10576;53.556;9.868;2022-12-20T16:16:23;9.00;99.90
20831;DHT22;10576;53.556;9.868;2022-12-20T16:18:50;8.90;99.90
20831;DHT22;10576;53.556;9.868;2022-12-20T16:21:26;9.00;99.90
20831;DHT22;10576;53.556;9.868;2022-12-20T16:23:53;9.00;99.90
20831;DHT22;10576;53.556;9.868;2022-12-20T16:26:20;9.10;99.90
20831;DHT22;10576;53.556;9.868;2022-12-20T16:28:47;9.00;99.90
20831;DHT22;10576;53.556;9.868;2022-12-20T16:31:21;9.10;99.90
20831;DHT22;10576;53.556;9.868;2022-12-20T16:33:47;9.10;99.90
20831;DHT22;10576;53.556;9.868;2022-12-20T16:36:13;9.10;99.90
20831;DHT22;10576;53.556;9.868;2022-12-20T16:38:40;9.00;99.90
20831;DHT22;10576;53.556;9.868;2022-12-20T16:41:12;9.10;99.90
20831;DHT22;10576;53.556;9.868;2022-12-20T16:43:38;9.10;99.90
20831;DHT22;10576;53.556;9.868;2022-12-20T16:46:04;9.10;99.90
20831;DHT22;10576;53.556;9.868;2022-12-20T16:48:30;9.20;99.90
20831;DHT22;10576;53.556;9.868;2022-12-20T16:50:56;9.40;99.90
20831;DHT22;10576;53.556;9.868;2022-12-20T16:53:22;9.10;99.90
20831;DHT22;10576;53.556;9.868;2022-12-20T16:55:48;9.20;99.90
20831;DHT22;10576;53.556;9.868;2022-12-20T16:58:13;9.20;99.90
20831;DHT22;10576;53.556;9.868;2022-12-20T17:00:39;9.20;99.90
20831;DHT22;10576;53.556;9.868;2022-12-20T17:03:05;9.10;99.90
20831;DHT22;10576;53.556;9.868;2022-12-20T17:05:33;9.10;99.90
20831;DHT22;10576;53.556;9.868;2022-12-20T17:08:01;9.10;99.90
20831;DHT22;10576;53.556;9.868;2022-12-20T17:10:27;9.10;99.90
20831;DHT22;10576;53.556;9.868;2022-12-20T17:12:55;9.10;99.90
20831;DHT22;10576;53.556;9.868;2022-12-20T17:15:30;9.10;99.90
20831;DHT22;10576;53.556;9.868;2022-12-20T17:17:56;9.20;99.90
20831;DHT22;10576;53.556;9.868;2022-12-20T17:20:23;9.20;99.90
20831;DHT22;10576;53.556;9.868;2022-12-20T17:22:53;9.20;99.90
20831;DHT22;10576;53.556;9.868;2022-12-20T17:25:25;9.20;99.90
20831;DHT22;10576;53.556;9.868;2022-12-20T17:27:51;9.20;99.90
20831;DHT22;10576;53.556;9.868;2022-12-20T17:30:18;9.10;99.90
20831;DHT22;10576;53.556;9.868;2022-12-20T17:32:44;9.10;99.90
20831;DHT22;10576;53.556;9.868;2022-12-20T17:35:31;9.10;99.90
20831;DHT22;10576;53.556;9.868;2022-12-20T17:37:57;9.20;99.90
20831;DHT22;10576;53.556;9.868;2022-12-20T17:40:26;9.20;99.90
20831;DHT22;10576;53.556;9.868;2022-12-20T17:42:52;9.10;99.90
20831;DHT22;10576;53.556;9.868;2022-12-20T17:45:38;9.10;99.90
20831;DHT22;10576;53.556;9.868;2022-12-20T17:48:04;9.20;99.90
20831;DHT22;10576;53.556;9.868;2022-12-20T17:50:30;9.10;99.90
20831;DHT22;10576;53.556;9.868;2022-12-20T17:52:55;9.20;99.90
20831;DHT22;10576;53.556;9.868;2022-12-20T17:55:24;9.30;99.90
20831;DHT22;10576;53.556;9.868;2022-12-20T17:57:50;9.30;99.90
20831;DHT22;10576;53.556;9.868;2022-12-20T18:00:29;9.30;99.90
20831;DHT22;10576;53.556;9.868;2022-12-20T18:02:55;9.20;99.90
20831;DHT22;10576;53.556;9.868;2022-12-20T18:05:22;9.20;99.90
20831;DHT22;10576;53.556;9.868;2022-12-20T18:07:49;9.20;99.90
20831;DHT22;10576;53.556;9.868;2022-12-20T18:10:15;9.20;99.90
20831;DHT22;10576;53.556;9.868;2022-12-20T18:12:41;9.30;99.90
20831;DHT22;10576;53.556;9.868;2022-12-20T18:15:07;9.20;99.90
20831;DHT22;10576;53.556;9.868;2022-12-20T18:17:35;9.30;99.90
20831;DHT22;10576;53.556;9.868;2022-12-20T18:20:01;9.20;99.90
20831;DHT22;10576;53.556;9.868;2022-12-20T18:22:28;9.20;99.90
20831;DHT22;10576;53.556;9.868;2022-12-20T18:24:53;9.30;99.90
20831;DHT22;10576;53.556;9.868;2022-12-20T18:27:19;9.30;99.90
20831;DHT22;10576;53.556;9.868;2022-12-20T18:29:45;9.30;99.90
20831;DHT22;10576;53.556;9.868;2022-12-20T18:32:10;9.30;99.90
20831;DHT22;10576;53.556;9.868;2022-12-20T18:34:36;9.30;99.90
20831;DHT22;10576;53.556;9.868;2022-12-20T18:37:02;9.30;99.90
20831;DHT22;10576;53.556;9.868;2022-12-20T18:39:30;9.30;99.90
20831;DHT22;10576;53.556;9.868;2022-12-20T18:41:55;9.30;99.90
20831;DHT22;10576;53.556;9.868;2022-12-20T18:44:22;9.30;99.90
20831;DHT22;10576;53.556;9.868;2022-12-20T18:46:48;9.30;99.90
20831;DHT22;10576;53.556;9.868;2022-12-20T18:49:14;9.30;99.90
20831;DHT22;10576;53.556;9.868;2022-12-20T18:51:39;9.30;99.90
20831;DHT22;10576;53.556;9.868;2022-12-20T18:54:06;9.00;99.90
20831;DHT22;10576;53.556;9.868;2022-12-20T18:56:35;9.20;99.90
20831;DHT22;10576;53.556;9.868;2022-12-20T18:59:01;9.30;99.90
20831;DHT22;10576;53.556;9.868;2022-12-20T19:01:30;9.20;99.90
20831;DHT22;10576;53.556;9.868;2022-12-20T19:03:57;9.30;99.90
20831;DHT22;10576;53.556;9.868;2022-12-20T19:06:24;9.40;99.90
20831;DHT22;10576;53.556;9.868;2022-12-20T19:08:50;9.10;99.90
20831;DHT22;10576;53.556;9.868;2022-12-20T19:11:18;9.30;99.90
20831;DHT22;10576;53.556;9.868;2022-12-20T19:13:44;9.20;99.90
20831;DHT22;10576;53.556;9.868;2022-12-20T19:16:15;9.30;99.90
20831;DHT22;10576;53.556;9.868;2022-12-20T19:18:42;9.30;99.90
20831;DHT22;10576;53.556;9.868;2022-12-20T19:23:37;9.20;99.90
20831;DHT22;10576;53.556;9.868;2022-12-20T19:28:31;9.20;99.90
20831;DHT22;10576;53.556;9.868;2022-12-20T19:31:03;9.10;99.90
20831;DHT22;10576;53.556;9.868;2022-12-20T19:33:29;9.20;99.90
20831;DHT22;10576;53.556;9.868;2022-12-20T19:35:55;9.20;99.90
20831;DHT22;10576;53.556;9.868;2022-12-20T19:38:21;9.20;99.90
20831;DHT22;10576;53.556;9.868;2022-12-20T19:40:53;9.10;99.90
20831;DHT22;10576;53.556;9.868;2022-12-20T19:43:19;9.10;99.90
20831;DHT22;10576;53.556;9.868;2022-12-20T19:45:45;8.80;99.90
20831;DHT22;10576;53.556;9.868;2022-12-20T19:48:10;9.20;99.90
20831;DHT22;10576;53.556;9.868;2022-12-20T19:50:36;9.20;99.90
20831;DHT22;10576;53.556;9.868;2022-12-20T19:53:02;9.10;99.90
20831;DHT22;10576;53.556;9.868;2022-12-20T19:55:29;9.10;99.90
20831;DHT22;10576;53.556;9.868;2022-12-20T19:57:55;9.10;99.90
20831;DHT22;10576;53.556;9.868;2022-12-20T20:00:21;9.10;99.90
20831;DHT22;10576;53.556;9.868;2022-12-20T20:02:46;9.10;99.90
20831;DHT22;10576;53.556;9.868;2022-12-20T20:05:12;9.10;99.90
20831;DHT22;10576;53.556;9.868;2022-12-20T20:07:38;9.20;99.90
20831;DHT22;10576;53.556;9.868;2022-12-20T20:10:03;9.10;99.90
20831;DHT22;10576;53.556;9.868;2022-12-20T20:12:29;9.00;99.90
20831;DHT22;10576;53.556;9.868;2022-12-20T20:14:55;9.10;99.90
20831;DHT22;10576;53.556;9.868;2022-12-20T20:17:21;9.20;99.90
20831;DHT22;10576;53.556;9.868;2022-12-20T20:19:47;8.90;99.90
20831;DHT22;10576;53.556;9.868;2022-12-20T20:22:13;9.10;99.90
20831;DHT22;10576;53.556;9.868;2022-12-20T20:24:38;9.10;99.90
20831;DHT22;10576;53.556;9.868;2022-12-20T20:27:04;9.00;99.90
20831;DHT22;10576;53.556;9.868;2022-12-20T20:29:30;9.00;99.90
20831;DHT22;10576;53.556;9.868;2022-12-20T20:31:55;9.00;99.90
20831;DHT22;10576;53.556;9.868;2022-12-20T20:34:21;9.10;99.90
20831;DHT22;10576;53.556;9.868;2022-12-20T20:36:47;9.00;99.90
20831;DHT22;10576;53.556;9.868;2022-12-20T20:39:13;8.60;99.90
20831;DHT22;10576;53.556;9.868;2022-12-20T20:41:38;9.00;99.90
20831;DHT22;10576;53.556;9.868;2022-12-20T20:44:05;9.00;99.90
20831;DHT22;10576;53.556;9.868;2022-12-20T20:46:30;9.00;99.90
20831;DHT22;10576;53.556;9.868;2022-12-20T20:48:56;9.10;99.90
20831;DHT22;10576;53.556;9.868;2022-12-20T20:51:22;9.10;99.90
20831;DHT22;10576;53.556;9.868;2022-12-20T20:53:48;8.90;99.90
20831;DHT22;10576;53.556;9.868;2022-12-20T20:56:15;9.00;99.90
20831;DHT22;10576;53.556;9.868;2022-12-20T20:58:41;9.00;99.90
20831;DHT22;10576;53.556;9.868;2022-12-20T21:01:08;9.00;99.90
20831;DHT22;10576;53.556;9.868;2022-12-20T21:03:34;9.00;99.90
20831;DHT22;10576;53.556;9.868;2022-12-20T21:06:00;9.00;99.90
20831;DHT22;10576;53.556;9.868;2022-12-20T21:08:26;9.00;99.90
20831;DHT22;10576;53.556;9.868;2022-12-20T21:10:52;9.00;99.90
20831;DHT22;10576;53.556;9.868;2022-12-20T21:13:18;9.00;99.90
20831;DHT22;10576;53.556;9.868;2022-12-20T21:15:43;9.10;99.90
20831;DHT22;10576;53.556;9.868;2022-12-20T21:18:11;9.00;99.90
20831;DHT22;10576;53.556;9.868;2022-12-20T21:20:37;9.00;99.90